Time;durP1;ratioP1;P1;durP2;ratioP2;P2;SDS_P1;SDS_P2;PMS_P1;PMS_P2;Temp;Humidity;BMP_temperature;BMP_pressure;BME280_temperature;BME280_humidity;BME280_pressure;Samples;Min_cycle;Max_cycle;Signal;HPM_P1;HPM_P2
2023/01/07 00:01:18;;;;;;;47.25;20.52;;;9.30;99.90;;;;;;5139538;27;20425;-82
2023/01/07 00:03:45;;;;;;;49.72;21.25;;;9.30;99.90;;;;;;5156835;27;20490;-81
2023/01/07 00:06:13;;;;;;;50.72;21.90;;;9.40;99.90;;;;;;5122488;27;20062;-81
2023/01/07 00:08:40;;;;;;;52.55;23.17;;;9.50;99.90;;;;;;5156557;27;20133;-82
2023/01/07 00:11:11;;;;;;;50.30;22.45;;;9.50;99.90;;;;;;5139423;27;20445;-82
2023/01/07 00:13:37;;;;;;;51.80;23.20;;;9.60;99.90;;;;;;5139305;27;20111;-82
2023/01/07 00:16:14;;;;;;;57.15;24.20;;;9.70;99.90;;;;;;5156322;27;20072;-82
2023/01/07 00:18:41;;;;;;;52.78;22.45;;;9.70;99.90;;;;;;5156499;27;20142;-81
2023/01/07 00:21:11;;;;;;;55.00;22.50;;;9.80;99.90;;;;;;5139288;27;20042;-82
2023/01/07 00:23:39;;;;;;;54.95;22.77;;;9.80;99.90;;;;;;5155496;27;20047;-82
2023/01/07 00:26:11;;;;;;;52.35;23.10;;;9.90;99.90;;;;;;5156348;27;20043;-81
2023/01/07 00:28:39;;;;;;;48.55;20.50;;;9.90;99.90;;;;;;5138879;27;20096;-81
2023/01/07 00:31:08;;;;;;;49.65;22.45;;;10.00;99.90;;;;;;5139179;27;20051;-82
2023/01/07 00:33:34;;;;;;;52.13;22.95;;;10.00;99.90;;;;;;5138865;27;20046;-82
2023/01/07 00:36:01;;;;;;;47.70;21.50;;;10.10;99.90;;;;;;5138727;27;20046;-82
2023/01/07 00:38:27;;;;;;;51.83;22.50;;;10.10;99.90;;;;;;5155731;27;20043;-83
2023/01/07 00:40:52;;;;;;;51.65;22.42;;;10.10;99.90;;;;;;5139040;27;20053;-83
2023/01/07 00:43:18;;;;;;;49.60;21.52;;;10.20;99.90;;;;;;5156144;27;20046;-82
2023/01/07 00:45:44;;;;;;;48.55;21.85;;;10.20;99.90;;;;;;5138542;27;20043;-83
2023/01/07 00:48:10;;;;;;;46.38;20.15;;;10.20;99.90;;;;;;5156076;27;20043;-83
2023/01/07 00:50:36;;;;;;;49.40;21.45;;;10.30;99.90;;;;;;5121347;27;20035;-81
2023/01/07 00:53:03;;;;;;;52.63;22.35;;;10.20;99.90;;;;;;5121610;27;20053;-81
2023/01/07 00:55:30;;;;;;;47.97;21.60;;;10.30;99.90;;;;;;5155191;27;20047;-83
2023/01/07 00:57:56;;;;;;;48.85;20.98;;;10.30;99.90;;;;;;5155495;27;20050;-82
2023/01/07 01:00:23;;;;;;;50.85;22.02;;;10.40;99.90;;;;;;5138586;27;20053;-83
2023/01/07 01:02:50;;;;;;;50.20;21.63;;;10.40;99.90;;;;;;5121278;27;20053;-83
2023/01/07 01:05:16;;;;;;;49.30;21.45;;;10.40;99.90;;;;;;5155741;27;20050;-82
2023/01/07 01:07:42;;;;;;;51.90;21.83;;;10.50;99.90;;;;;;5138312;27;20090;-82
2023/01/07 01:10:11;;;;;;;53.63;21.70;;;10.40;99.90;;;;;;5155321;27;20039;-81
2023/01/07 01:12:37;;;;;;;55.47;20.98;;;10.50;99.90;;;;;;5155257;27;20442;-80
2023/01/07 01:15:05;;;;;;;53.58;20.77;;;10.50;99.90;;;;;;5138155;27;20082;-81
2023/01/07 01:17:31;;;;;;;51.88;20.65;;;10.50;99.90;;;;;;5138086;27;20494;-81
2023/01/07 01:19:57;;;;;;;53.22;20.50;;;10.50;99.90;;;;;;5155355;27;20125;-81
2023/01/07 01:22:22;;;;;;;50.50;21.63;;;10.60;99.90;;;;;;5155483;27;20152;-82
2023/01/07 01:24:49;;;;;;;53.40;20.70;;;10.60;99.90;;;;;;5137696;27;20039;-83
2023/01/07 01:27:15;;;;;;;56.08;21.27;;;10.60;99.90;;;;;;5137978;27;20046;-82
2023/01/07 01:29:40;;;;;;;53.97;21.83;;;10.60;99.90;;;;;;5154718;27;20077;-82
2023/01/07 01:32:06;;;;;;;56.45;21.65;;;10.70;99.90;;;;;;5137981;27;20050;-82
2023/01/07 01:34:32;;;;;;;47.70;19.85;;;10.70;99.90;;;;;;5153768;27;20130;-83
2023/01/07 01:36:57;;;;;;;54.53;21.40;;;10.70;99.90;;;;;;5137788;27;20125;-85
2023/01/07 01:39:23;;;;;;;52.80;20.95;;;10.70;99.90;;;;;;5155010;27;20050;-83
2023/01/07 01:41:49;;;;;;;54.33;21.77;;;10.70;99.90;;;;;;5154764;27;20050;-84
2023/01/07 01:44:50;;;;;;;55.88;21.52;;;10.70;99.90;;;;;;5137326;27;20047;-85
2023/01/07 01:47:42;;;;;;;47.33;19.40;;;10.80;99.90;;;;;;5154928;27;20123;-82
2023/01/07 01:50:31;;;;;;;46.53;17.38;;;10.80;99.90;;;;;;5154818;27;20047;-82
2023/01/07 01:53:15;;;;;;;49.13;20.08;;;10.80;99.90;;;;;;5154796;27;20099;-82
2023/01/07 01:55:45;;;;;;;51.08;21.25;;;10.90;99.90;;;;;;5136654;27;20169;-82
2023/01/07 01:58:18;;;;;;;51.95;22.05;;;10.90;99.90;;;;;;5154676;27;20050;-82
2023/01/07 02:00:44;;;;;;;48.75;21.38;;;10.90;99.90;;;;;;5137137;27;20086;-85
2023/01/07 02:03:13;;;;;;;50.25;21.42;;;10.90;99.90;;;;;;5137240;27;20173;-84
2023/01/07 02:05:40;;;;;;;43.75;18.20;;;10.90;99.90;;;;;;5137068;27;20078;-83
2023/01/07 02:08:07;;;;;;;47.58;19.30;;;11.00;99.90;;;;;;5137129;27;20081;-83
2023/01/07 02:10:33;;;;;;;43.55;19.42;;;11.00;99.90;;;;;;5137139;27;20042;-84
2023/01/07 02:13:29;;;;;;;42.80;18.42;;;11.00;99.90;;;;;;5137167;27;20085;-83
2023/01/07 02:16:15;;;;;;;46.70;19.73;;;11.00;99.90;;;;;;5153907;27;20506;-84
2023/01/07 02:18:55;;;;;;;45.08;19.40;;;11.10;99.90;;;;;;5154119;27;20054;-83
2023/01/07 02:21:40;;;;;;;35.28;14.68;;;11.00;99.90;;;;;;5154296;27;20474;-83
2023/01/07 02:24:27;;;;;;;47.97;19.88;;;11.10;99.90;;;;;;5136956;27;20478;-83
2023/01/07 02:27:17;;;;;;;41.15;17.00;;;11.00;99.90;;;;;;5136683;27;20096;-83
2023/01/07 02:30:01;;;;;;;46.45;19.30;;;11.00;99.90;;;;;;5153843;27;20153;-83
2023/01/07 02:33:01;;;;;;;40.10;18.30;;;11.10;99.90;;;;;;5154101;27;20090;-83
2023/01/07 02:35:37;;;;;;;44.92;18.65;;;11.10;99.90;;;;;;5153765;27;20045;-83
2023/01/07 02:38:26;;;;;;;46.50;20.10;;;11.20;99.90;;;;;;5154143;27;20046;-83
2023/01/07 02:41:10;;;;;;;46.88;21.00;;;11.10;99.90;;;;;;5153762;27;20078;-83
2023/01/07 02:43:42;;;;;;;43.55;20.25;;;11.10;99.90;;;;;;5153962;27;20083;-82
2023/01/07 02:46:22;;;;;;;40.47;16.58;;;11.20;99.90;;;;;;5136060;27;20543;-82
2023/01/07 02:48:48;;;;;;;45.90;20.23;;;11.20;99.90;;;;;;5153630;27;20475;-81
2023/01/07 02:51:13;;;;;;;47.33;21.67;;;11.10;99.90;;;;;;5153718;27;20047;-81
2023/01/07 02:53:42;;;;;;;47.83;20.65;;;11.20;99.90;;;;;;5135980;27;20054;-82
2023/01/07 02:56:49;;;;;;;49.60;20.05;;;11.20;99.90;;;;;;5152970;27;20046;-82
2023/01/07 02:59:38;;;;;;;41.90;18.80;;;11.20;99.90;;;;;;5097666;27;20076;-81
2023/01/07 03:02:25;;;;;;;52.90;23.85;;;11.10;99.90;;;;;;5136298;27;20082;-81
2023/01/07 03:05:01;;;;;;;48.55;22.13;;;11.20;99.90;;;;;;5153428;27;20137;-83
2023/01/07 03:07:51;;;;;;;46.13;22.58;;;11.20;99.90;;;;;;5136379;27;20180;-82
2023/01/07 03:10:46;;;;;;;50.40;22.48;;;11.20;99.90;;;;;;5153594;27;20129;-83
2023/01/07 03:13:26;;;;;;;53.88;23.73;;;11.20;99.90;;;;;;5139514;27;20055;-83
2023/01/07 03:16:22;;;;;;;52.13;22.70;;;11.20;99.90;;;;;;5135853;27;20110;-83
2023/01/07 03:19:20;;;;;;;44.60;19.48;;;11.10;99.90;;;;;;5153259;27;20046;-83
2023/01/07 03:21:48;;;;;;;42.63;20.52;;;11.20;99.90;;;;;;5130527;27;20406;-82
2023/01/07 03:24:15;;;;;;;44.13;21.77;;;11.20;99.90;;;;;;5153305;27;20045;-82
2023/01/07 03:26:47;;;;;;;42.88;21.70;;;11.20;99.90;;;;;;5136067;27;20129;-82
2023/01/07 03:29:15;;;;;;;42.67;20.90;;;11.20;99.90;;;;;;5136104;27;20141;-82
2023/01/07 03:31:59;;;;;;;42.47;21.65;;;11.20;99.90;;;;;;5136022;27;20050;-81
2023/01/07 03:34:27;;;;;;;42.40;21.58;;;11.30;99.90;;;;;;5135576;27;20079;-82
2023/01/07 03:37:00;;;;;;;33.25;16.83;;;11.30;99.90;;;;;;5135312;27;20467;-82
2023/01/07 03:39:28;;;;;;;41.40;20.98;;;11.30;99.90;;;;;;5136107;27;20050;-81
2023/01/07 03:44:38;;;;;;;39.35;21.63;;;11.30;99.90;;;;;;5154272;27;20051;-81
2023/01/07 03:47:05;;;;;;;41.00;21.00;;;11.30;99.90;;;;;;5135842;27;20049;-81
2023/01/07 03:49:33;;;;;;;37.97;20.40;;;11.30;99.90;;;;;;5153086;27;20508;-81
2023/01/07 03:51:59;;;;;;;43.92;22.33;;;11.30;99.90;;;;;;5118871;27;20058;-81
2023/01/07 03:54:25;;;;;;;33.90;18.38;;;11.30;99.90;;;;;;5135842;27;20043;-81
2023/01/07 03:56:50;;;;;;;31.17;17.27;;;11.30;99.90;;;;;;5135179;27;20046;-82
2023/01/07 03:59:16;;;;;;;33.53;18.33;;;11.30;99.90;;;;;;5138480;27;20139;-82
2023/01/07 04:01:42;;;;;;;39.83;20.77;;;11.30;99.90;;;;;;5139706;27;20103;-82
2023/01/07 04:04:07;;;;;;;33.47;18.58;;;11.30;99.90;;;;;;5156570;27;20129;-81
2023/01/07 04:06:33;;;;;;;31.90;19.17;;;11.30;99.90;;;;;;5139454;27;20049;-81
2023/01/07 04:08:59;;;;;;;34.38;18.88;;;11.30;99.90;;;;;;5139407;27;20486;-87
2023/01/07 04:11:25;;;;;;;33.60;20.38;;;11.30;99.90;;;;;;5139550;27;20046;-83
2023/01/07 04:13:50;;;;;;;33.85;19.60;;;11.40;99.90;;;;;;5156777;27;20085;-83
2023/01/07 04:16:16;;;;;;;28.70;16.75;;;11.30;99.90;;;;;;5139108;27;20038;-83
2023/01/07 04:18:42;;;;;;;30.00;17.50;;;11.30;99.90;;;;;;5139168;27;20046;-85
2023/01/07 04:21:07;;;;;;;32.25;17.92;;;11.30;99.90;;;;;;5139135;27;20061;-83
2023/01/07 04:23:33;;;;;;;34.53;18.30;;;11.30;99.90;;;;;;5139335;27;20042;-83
2023/01/07 04:25:59;;;;;;;28.17;16.60;;;11.30;99.90;;;;;;5121632;27;20046;-83
2023/01/07 04:28:25;;;;;;;30.95;17.33;;;11.30;99.90;;;;;;5139072;27;20047;-82
2023/01/07 04:30:50;;;;;;;28.30;17.73;;;11.30;99.90;;;;;;5139601;27;20105;-82
2023/01/07 04:33:16;;;;;;;31.65;17.40;;;11.30;99.90;;;;;;5156109;27;20085;-84
2023/01/07 04:35:45;;;;;;;30.92;17.85;;;11.30;99.90;;;;;;5156045;27;20505;-83
2023/01/07 04:38:11;;;;;;;27.15;16.58;;;11.20;99.90;;;;;;5156026;27;20039;-83
2023/01/07 04:40:36;;;;;;;27.80;14.77;;;11.20;99.90;;;;;;5139087;27;20084;-84
2023/01/07 04:43:02;;;;;;;32.45;19.25;;;11.20;99.90;;;;;;5121788;27;20126;-84
2023/01/07 04:45:28;;;;;;;29.02;16.77;;;11.20;99.90;;;;;;5138816;27;20047;-83
2023/01/07 04:47:55;;;;;;;31.13;18.13;;;11.20;99.90;;;;;;5138712;27;20043;-84
2023/01/07 04:50:21;;;;;;;34.35;18.58;;;11.10;99.90;;;;;;5155609;27;20272;-84
2023/01/07 04:52:47;;;;;;;30.23;17.73;;;11.10;99.90;;;;;;5138636;27;20087;-83
2023/01/07 04:55:12;;;;;;;30.65;18.23;;;11.10;99.90;;;;;;5138123;27;20496;-84
2023/01/07 04:57:38;;;;;;;29.30;15.27;;;11.10;99.90;;;;;;5155796;27;20038;-81
2023/01/07 05:00:05;;;;;;;31.23;18.90;;;11.10;99.90;;;;;;5155541;27;20078;-81
2023/01/07 05:02:31;;;;;;;28.65;16.55;;;11.10;99.90;;;;;;5138343;27;20055;-82
2023/01/07 05:04:57;;;;;;;29.98;17.15;;;11.10;99.90;;;;;;5138385;27;20095;-81
2023/01/07 05:07:22;;;;;;;29.83;17.25;;;11.10;99.90;;;;;;5121032;27;20047;-81
2023/01/07 05:09:48;;;;;;;28.55;17.92;;;11.10;99.90;;;;;;5155405;27;20049;-82
2023/01/07 05:12:14;;;;;;;32.63;16.83;;;11.00;99.90;;;;;;5155278;27;20043;-82
2023/01/07 05:14:40;;;;;;;24.20;14.27;;;11.00;99.90;;;;;;5155537;27;20106;-83
2023/01/07 05:17:05;;;;;;;29.17;18.02;;;11.00;99.90;;;;;;5155256;27;20039;-82
2023/01/07 05:19:31;;;;;;;26.30;15.80;;;11.00;99.90;;;;;;5138127;27;20502;-82
2023/01/07 05:21:57;;;;;;;23.50;13.55;;;11.00;99.90;;;;;;5138011;27;20043;-81
2023/01/07 05:24:23;;;;;;;29.20;16.33;;;11.00;99.90;;;;;;5155214;27;20439;-82
2023/01/07 05:26:49;;;;;;;29.42;17.23;;;11.00;99.90;;;;;;5121099;27;20129;-82
2023/01/07 05:29:14;;;;;;;29.40;17.55;;;11.00;99.90;;;;;;5143700;27;20515;-82
2023/01/07 05:31:40;;;;;;;25.73;15.90;;;11.00;99.90;;;;;;5100260;27;20082;-82
2023/01/07 05:34:06;;;;;;;25.83;16.58;;;11.00;99.90;;;;;;5134297;27;20047;-80
2023/01/07 05:36:32;;;;;;;27.77;16.58;;;11.00;99.90;;;;;;5117090;27;20039;-81
2023/01/07 05:38:58;;;;;;;24.75;15.95;;;11.00;99.90;;;;;;5134133;27;20453;-82
2023/01/07 05:41:23;;;;;;;25.70;16.20;;;11.00;99.90;;;;;;5117034;27;20061;-83
2023/01/07 05:43:49;;;;;;;22.52;13.80;;;11.00;99.90;;;;;;5100480;27;20051;-82
2023/01/07 05:46:15;;;;;;;25.33;16.27;;;10.90;99.90;;;;;;5117005;27;20479;-82
2023/01/07 05:48:41;;;;;;;21.77;12.85;;;10.90;99.90;;;;;;5117106;27;20057;-84
2023/01/07 05:51:06;;;;;;;25.70;15.63;;;10.90;99.90;;;;;;5133799;27;20134;-83
2023/01/07 05:53:32;;;;;;;25.48;15.85;;;10.90;99.90;;;;;;5133755;27;20070;-82
2023/01/07 05:55:59;;;;;;;26.00;16.45;;;10.90;99.90;;;;;;5133347;27;20054;-83
2023/01/07 05:58:26;;;;;;;22.77;13.05;;;10.90;99.90;;;;;;5133762;27;20050;-82
2023/01/07 06:00:53;;;;;;;26.08;16.45;;;10.90;99.90;;;;;;5116779;27;20082;-82
2023/01/07 06:03:20;;;;;;;26.25;15.38;;;10.90;99.90;;;;;;5133623;27;20458;-82
2023/01/07 06:05:46;;;;;;;28.80;16.23;;;10.90;99.90;;;;;;5133762;27;20062;-82
2023/01/07 06:08:12;;;;;;;25.90;13.98;;;10.90;99.90;;;;;;5116457;27;20156;-82
2023/01/07 06:10:39;;;;;;;23.33;14.18;;;10.90;99.90;;;;;;5133673;27;20039;-83
2023/01/07 06:13:04;;;;;;;24.67;15.20;;;10.90;99.90;;;;;;5116395;27;20039;-83
2023/01/07 06:15:30;;;;;;;21.83;13.15;;;10.90;99.90;;;;;;5116046;27;20387;-83
2023/01/07 06:17:56;;;;;;;22.90;14.23;;;10.90;99.90;;;;;;5133505;27;20047;-83
2023/01/07 06:20:22;;;;;;;23.33;14.77;;;10.90;99.90;;;;;;5098571;27;20395;-83
2023/01/07 06:22:48;;;;;;;23.02;13.82;;;10.90;99.90;;;;;;5116066;27;20043;-83
2023/01/07 06:25:14;;;;;;;17.90;10.75;;;10.90;99.90;;;;;;5133147;27;20138;-83
2023/01/07 06:27:40;;;;;;;23.80;11.85;;;10.90;99.90;;;;;;5116316;27;20043;-82
2023/01/07 06:30:08;;;;;;;23.55;13.85;;;10.90;99.90;;;;;;5116322;27;20137;-83
2023/01/07 06:32:41;;;;;;;18.67;12.27;;;10.90;99.90;;;;;;5098996;27;20475;-82
2023/01/07 06:35:09;;;;;;;20.13;12.77;;;10.90;99.90;;;;;;5133319;27;20497;-83
2023/01/07 06:37:34;;;;;;;20.92;13.90;;;10.90;99.90;;;;;;5115887;27;20091;-82
2023/01/07 06:40:00;;;;;;;20.13;13.07;;;10.90;99.90;;;;;;5132745;27;20039;-82
2023/01/07 06:42:26;;;;;;;20.42;13.27;;;10.90;99.90;;;;;;5132859;27;20096;-83
2023/01/07 06:44:52;;;;;;;19.27;12.95;;;10.90;99.90;;;;;;5133342;27;20510;-82
2023/01/07 06:47:17;;;;;;;22.00;12.77;;;10.80;99.90;;;;;;5098926;27;20379;-82
2023/01/07 06:49:43;;;;;;;19.25;11.70;;;10.90;99.90;;;;;;5115922;27;20131;-84
2023/01/07 06:52:09;;;;;;;19.98;11.98;;;10.90;99.90;;;;;;5115851;28;20479;-83
2023/01/07 06:54:34;;;;;;;19.45;12.68;;;10.80;99.90;;;;;;5115457;28;20043;-84
2023/01/07 06:57:00;;;;;;;18.63;12.57;;;10.80;99.90;;;;;;5115497;27;20047;-82
2023/01/07 06:59:26;;;;;;;18.20;11.85;;;10.90;99.90;;;;;;5132602;27;20046;-83
2023/01/07 07:01:52;;;;;;;19.38;11.85;;;10.80;99.90;;;;;;5115874;28;20082;-82
2023/01/07 07:04:17;;;;;;;18.17;12.50;;;10.80;99.90;;;;;;5132709;27;20071;-83
2023/01/07 07:06:43;;;;;;;18.67;12.02;;;10.80;99.90;;;;;;5115718;28;20047;-83
2023/01/07 07:09:09;;;;;;;18.40;12.02;;;10.80;99.90;;;;;;5115801;28;20100;-82
2023/01/07 07:11:35;;;;;;;18.65;11.43;;;10.80;99.90;;;;;;5115539;28;20117;-82
2023/01/07 07:14:02;;;;;;;18.05;11.05;;;10.80;99.90;;;;;;5132700;27;20047;-81
2023/01/07 07:16:28;;;;;;;20.30;11.20;;;10.80;99.90;;;;;;5115733;28;20043;-81
2023/01/07 07:18:54;;;;;;;17.45;10.85;;;10.80;99.90;;;;;;5131724;28;20494;-83
2023/01/07 07:21:20;;;;;;;18.48;10.25;;;10.80;99.90;;;;;;5114937;28;20093;-82
2023/01/07 07:23:46;;;;;;;15.40;10.48;;;10.80;99.90;;;;;;5115101;28;20043;-82
2023/01/07 07:26:11;;;;;;;14.48;10.50;;;10.80;99.90;;;;;;5131969;28;20054;-81
2023/01/07 07:28:37;;;;;;;13.68;10.18;;;10.80;99.90;;;;;;5115271;28;20047;-81
2023/01/07 07:31:03;;;;;;;15.13;10.45;;;10.80;99.90;;;;;;5097654;28;20498;-83
2023/01/07 07:33:29;;;;;;;16.70;10.48;;;10.80;99.90;;;;;;5117940;27;20043;-81
2023/01/07 07:35:56;;;;;;;17.63;10.40;;;10.80;99.90;;;;;;5118614;27;20471;-82
2023/01/07 07:38:21;;;;;;;13.10;9.52;;;10.80;99.90;;;;;;5102087;27;20054;-81
2023/01/07 07:40:47;;;;;;;16.50;10.48;;;10.80;99.90;;;;;;5101702;27;20101;-82
2023/01/07 07:43:13;;;;;;;17.73;8.35;;;10.80;99.90;;;;;;5135417;27;20036;-81
2023/01/07 07:45:43;;;;;;;13.25;9.57;;;10.80;99.90;;;;;;5135566;27;20051;-82
2023/01/07 07:48:11;;;;;;;14.90;9.65;;;10.80;99.90;;;;;;5118342;27;20050;-82
2023/01/07 07:50:37;;;;;;;25.73;14.02;;;10.80;99.90;;;;;;5116889;27;20043;-83
2023/01/07 07:53:03;;;;;;;16.02;9.68;;;10.80;99.90;;;;;;5134453;27;20054;-84
2023/01/07 07:55:29;;;;;;;13.10;9.48;;;10.80;99.90;;;;;;5116050;27;20130;-83
2023/01/07 07:57:55;;;;;;;13.45;9.05;;;10.80;99.90;;;;;;5133726;27;20133;-85
2023/01/07 08:00:22;;;;;;;17.05;8.25;;;10.80;99.90;;;;;;5133630;27;20058;-85
2023/01/07 08:02:47;;;;;;;15.50;10.15;;;10.80;99.90;;;;;;5116838;27;20043;-85
2023/01/07 08:05:13;;;;;;;10.60;8.27;;;10.80;99.90;;;;;;5116937;27;20053;-84
2023/01/07 08:07:39;;;;;;;13.60;8.55;;;10.70;99.90;;;;;;5135563;27;20035;-84
2023/01/07 08:10:05;;;;;;;14.05;9.30;;;10.70;99.90;;;;;;5111289;27;20042;-84
2023/01/07 08:12:35;;;;;;;13.65;8.32;;;10.80;99.90;;;;;;5154091;27;20039;-84
2023/01/07 08:15:00;;;;;;;11.90;8.20;;;10.80;99.90;;;;;;5154718;27;20512;-83
2023/01/07 08:17:26;;;;;;;13.32;8.85;;;10.70;99.90;;;;;;5120196;27;20046;-85
2023/01/07 08:19:52;;;;;;;12.05;8.95;;;10.70;99.90;;;;;;4769703;27;10000547;-84
2023/01/07 08:22:17;;;;;;;14.68;9.18;;;10.70;99.90;;;;;;5126579;27;20043;-86
2023/01/07 08:24:43;;;;;;;10.60;8.15;;;10.80;99.90;;;;;;5133561;27;20051;-83
2023/01/07 08:27:09;;;;;;;11.30;7.93;;;10.80;99.90;;;;;;5116604;27;20055;-85
2023/01/07 08:29:34;;;;;;;12.10;7.97;;;10.80;99.90;;;;;;5153482;27;20047;-79
2023/01/07 08:32:00;;;;;;;10.85;7.72;;;10.70;99.90;;;;;;5155854;27;20391;-81
2023/01/07 08:34:26;;;;;;;13.63;7.40;;;10.70;99.90;;;;;;5153513;27;20054;-81
2023/01/07 08:36:51;;;;;;;10.95;7.43;;;10.70;99.90;;;;;;5125178;27;20034;-88
2023/01/07 08:39:17;;;;;;;12.93;8.27;;;10.70;99.90;;;;;;5120349;27;20043;-82
2023/01/07 08:41:43;;;;;;;12.45;7.75;;;10.70;99.90;;;;;;5137870;27;20065;-81
2023/01/07 08:44:09;;;;;;;12.07;7.20;;;10.60;99.90;;;;;;5138627;27;20410;-82
2023/01/07 08:46:34;;;;;;;12.95;7.65;;;10.60;99.90;;;;;;5139075;27;20050;-82
2023/01/07 08:49:00;;;;;;;13.75;8.32;;;10.70;99.90;;;;;;5155655;27;20177;-81
2023/01/07 08:51:26;;;;;;;8.60;6.95;;;10.60;99.90;;;;;;5156271;27;20047;-81
2023/01/07 08:53:51;;;;;;;13.20;7.68;;;10.60;99.90;;;;;;5138841;27;20051;-81
2023/01/07 08:56:17;;;;;;;12.50;8.15;;;10.60;99.90;;;;;;5138484;27;20452;-83
2023/01/07 08:58:43;;;;;;;11.57;7.93;;;10.60;99.90;;;;;;5121919;27;20076;-81
2023/01/07 09:01:09;;;;;;;9.55;7.40;;;10.60;99.90;;;;;;5142544;27;20050;-82
2023/01/07 09:03:35;;;;;;;10.63;7.65;;;10.60;99.90;;;;;;5138057;27;20095;-82
2023/01/07 09:06:01;;;;;;;13.25;7.70;;;10.70;99.90;;;;;;5156199;27;20050;-82
2023/01/07 09:08:26;;;;;;;10.30;7.43;;;10.70;99.90;;;;;;5154969;27;20050;-81
2023/01/07 09:10:52;;;;;;;9.80;7.18;;;10.70;99.90;;;;;;5120156;27;20239;-81
2023/01/07 09:13:18;;;;;;;10.00;7.38;;;10.70;99.90;;;;;;5138217;27;20034;-81
2023/01/07 09:15:44;;;;;;;9.85;7.40;;;10.70;99.90;;;;;;5154533;27;20121;-83
2023/01/07 09:18:10;;;;;;;11.48;6.68;;;10.80;99.90;;;;;;5134726;27;20082;-82
2023/01/07 09:20:35;;;;;;;8.05;6.13;;;10.80;99.90;;;;;;5134837;27;20082;-82
2023/01/07 09:23:01;;;;;;;8.70;6.38;;;10.80;99.90;;;;;;5117657;27;20134;-83
2023/01/07 09:25:27;;;;;;;7.22;5.88;;;10.80;99.90;;;;;;5117894;27;20150;-82
2023/01/07 09:27:53;;;;;;;8.05;5.88;;;10.70;99.90;;;;;;5139933;27;20042;-83
2023/01/07 09:30:19;;;;;;;6.85;5.68;;;10.70;99.90;;;;;;5155566;27;20375;-82
2023/01/07 09:32:44;;;;;;;8.02;5.47;;;10.70;99.90;;;;;;5140139;27;20054;-83
2023/01/07 09:35:11;;;;;;;8.45;5.75;;;10.70;99.90;;;;;;5117845;27;20379;-81
2023/01/07 09:37:37;;;;;;;12.75;5.88;;;10.70;99.90;;;;;;5134568;27;20050;-85
2023/01/07 09:40:04;;;;;;;7.20;5.07;;;10.80;99.90;;;;;;5117398;27;20463;-82
2023/01/07 09:43:00;;;;;;;9.50;5.40;;;10.80;99.90;;;;;;5134770;27;20051;-81
2023/01/07 09:45:28;;;;;;;6.63;5.03;;;10.80;99.90;;;;;;5133740;27;20057;-81
2023/01/07 09:47:57;;;;;;;7.15;5.32;;;10.90;99.90;;;;;;5153263;27;20095;-82
2023/01/07 09:50:38;;;;;;;7.00;5.22;;;10.90;99.90;;;;;;5155136;27;20054;-81
2023/01/07 09:53:11;;;;;;;7.32;4.60;;;10.90;99.90;;;;;;5137677;27;20478;-81
2023/01/07 09:55:40;;;;;;;9.20;4.95;;;10.90;99.90;;;;;;5133321;27;20578;-81
2023/01/07 09:58:15;;;;;;;8.18;4.38;;;10.90;99.90;;;;;;5116832;27;20104;-81
2023/01/07 10:00:48;;;;;;;8.40;4.63;;;10.80;99.90;;;;;;5117006;27;20043;-82
2023/01/07 10:03:21;;;;;;;6.53;5.13;;;10.80;99.90;;;;;;5117241;27;20043;-81
2023/01/07 10:06:09;;;;;;;6.07;4.32;;;10.80;99.90;;;;;;5116040;27;20078;-82
2023/01/07 10:08:43;;;;;;;7.15;4.63;;;10.70;99.90;;;;;;5133498;27;20509;-81
2023/01/07 10:11:27;;;;;;;6.57;4.10;;;10.80;99.90;;;;;;5116841;27;20160;-82
2023/01/07 10:14:11;;;;;;;7.28;4.35;;;10.70;99.90;;;;;;5133820;27;20050;-81
2023/01/07 10:16:45;;;;;;;7.35;4.63;;;10.80;99.90;;;;;;5133872;27;20039;-81
2023/01/07 10:19:57;;;;;;;6.53;4.28;;;10.80;99.90;;;;;;5123377;27;20046;-84
2023/01/07 10:22:38;;;;;;;4.47;3.58;;;10.80;99.90;;;;;;5102194;27;20087;-82
2023/01/07 10:25:26;;;;;;;7.60;3.63;;;10.90;99.90;;;;;;4762169;27;10000283;-82
2023/01/07 10:27:54;;;;;;;4.50;3.38;;;10.90;99.90;;;;;;5152937;27;20045;-82
2023/01/07 10:30:24;;;;;;;4.40;3.25;;;10.90;99.90;;;;;;5153739;27;20429;-81
2023/01/07 10:33:00;;;;;;;4.55;3.15;;;10.90;99.90;;;;;;5136191;27;20478;-83
2023/01/07 10:35:29;;;;;;;4.68;3.17;;;10.90;99.90;;;;;;5135053;27;20050;-81
2023/01/07 10:37:58;;;;;;;4.25;2.60;;;11.00;99.90;;;;;;5152629;27;20137;-83
2023/01/07 10:40:36;;;;;;;7.82;3.55;;;11.00;99.90;;;;;;5152071;27;20047;-83
2023/01/07 10:43:08;;;;;;;4.57;2.85;;;11.00;99.90;;;;;;5121279;27;20178;-83
2023/01/07 10:46:13;;;;;;;3.75;3.10;;;11.00;99.90;;;;;;5132080;27;20050;-84
2023/01/07 10:48:57;;;;;;;3.45;2.90;;;11.00;99.90;;;;;;5127249;27;20051;-83
2023/01/07 10:52:02;;;;;;;4.65;3.03;;;11.00;99.90;;;;;;5132770;27;20039;-81
2023/01/07 10:54:40;;;;;;;4.22;2.50;;;11.00;99.90;;;;;;5131836;27;20086;-81
2023/01/07 10:57:16;;;;;;;3.50;2.80;;;11.10;99.90;;;;;;5131959;27;20054;-83
2023/01/07 10:59:48;;;;;;;4.78;2.60;;;11.10;99.90;;;;;;5116512;27;20129;-82
2023/01/07 11:02:17;;;;;;;3.00;2.55;;;11.10;99.90;;;;;;5128245;27;20054;-82
2023/01/07 11:04:43;;;;;;;4.00;2.60;;;11.20;99.90;;;;;;5116881;27;20058;-82
2023/01/07 11:07:40;;;;;;;3.40;2.70;;;11.20;99.90;;;;;;5128509;27;20047;-83
2023/01/07 11:10:11;;;;;;;3.75;2.10;;;11.20;99.90;;;;;;5119057;27;20046;-85
2023/01/07 11:12:45;;;;;;;3.60;2.75;;;11.30;99.90;;;;;;5142782;27;20039;-82
2023/01/07 11:15:35;;;;;;;3.67;2.17;;;11.30;1.00;;;;;;5114914;28;20047;-82
2023/01/07 11:18:26;;;;;;;4.05;2.15;;;11.30;99.90;;;;;;5105916;27;20497;-82
2023/01/07 11:20:56;;;;;;;3.08;2.30;;;11.30;99.90;;;;;;5121885;27;20054;-83
2023/01/07 11:23:37;;;;;;;3.67;2.53;;;11.30;99.90;;;;;;5134958;27;20055;-82
2023/01/07 11:26:11;;;;;;;3.28;2.50;;;11.30;99.90;;;;;;5120745;27;20375;-86
2023/01/07 11:28:42;;;;;;;3.97;2.40;;;11.30;1.00;;;;;;5142423;27;20043;-81
2023/01/07 11:31:08;;;;;;;3.35;1.90;;;11.40;99.90;;;;;;5131339;27;20116;-84
2023/01/07 11:33:41;;;;;;;3.20;2.10;;;11.40;99.90;;;;;;5133069;27;20486;-83
2023/01/07 11:36:07;;;;;;;2.42;2.22;;;11.40;99.90;;;;;;5114209;27;20494;-82
2023/01/07 11:38:36;;;;;;;3.15;2.30;;;11.40;99.90;;;;;;5147799;27;20224;-85
2023/01/07 11:41:05;;;;;;;3.42;2.10;;;11.40;99.90;;;;;;5119754;28;20127;-83
2023/01/07 11:43:38;;;;;;;3.85;2.25;;;11.40;1.00;;;;;;5119433;27;20046;-81
2023/01/07 11:46:13;;;;;;;2.72;2.10;;;11.50;1.00;;;;;;5132751;27;20042;-83
2023/01/07 11:48:48;;;;;;;3.17;1.90;;;11.50;1.00;;;;;;5131041;27;20066;-83
2023/01/07 11:51:15;;;;;;;2.53;2.03;;;11.50;99.90;;;;;;5137375;27;20046;-81
2023/01/07 11:53:58;;;;;;;4.32;2.17;;;11.40;99.90;;;;;;5131062;27;20043;-82
2023/01/07 11:56:26;;;;;;;3.88;2.20;;;11.50;99.90;;;;;;5148318;27;20131;-82
2023/01/07 11:59:11;;;;;;;2.15;1.88;;;11.40;1.00;;;;;;5129435;27;20081;-87
2023/01/07 12:01:54;;;;;;;4.68;2.15;;;11.50;99.90;;;;;;5116377;28;20379;-83
2023/01/07 12:04:23;;;;;;;3.35;2.30;;;11.40;19.70;;;;;;5142646;27;20490;-82
2023/01/07 12:06:52;;;;;;;2.28;2.03;;;11.40;1.00;;;;;;5132618;27;20060;-82
2023/01/07 12:09:34;;;;;;;2.85;1.83;;;11.00;99.90;;;;;;5148086;27;20050;-82
2023/01/07 12:12:38;;;;;;;3.95;2.47;;;11.40;99.90;;;;;;5123431;27;20039;-83
2023/01/07 12:15:16;;;;;;;2.47;1.77;;;11.40;99.90;;;;;;5143460;27;20143;-81
2023/01/07 12:17:46;;;;;;;3.67;2.00;;;11.40;99.90;;;;;;5144828;27;20704;-81
2023/01/07 12:20:37;;;;;;;2.53;2.22;;;11.40;99.90;;;;;;5115969;27;20597;-82
2023/01/07 12:23:47;;;;;;;2.00;1.63;;;11.40;54.90;;;;;;5144923;27;20050;-82
2023/01/07 12:26:26;;;;;;;2.80;1.70;;;11.40;3.40;;;;;;5052259;28;20056;-83
2023/01/07 12:29:26;;;;;;;5.82;1.90;;;11.40;99.90;;;;;;5033181;28;20078;-83
2023/01/07 12:32:23;;;;;;;5.03;1.92;;;11.50;1.00;;;;;;5091368;27;20134;-83
2023/01/07 12:35:29;;;;;;;1.90;1.65;;;11.50;99.90;;;;;;5128694;27;20046;-82
2023/01/07 12:38:02;;;;;;;3.15;1.88;;;11.60;99.90;;;;;;5067893;28;20052;-82
2023/01/07 12:40:51;;;;;;;3.75;1.75;;;11.60;99.90;;;;;;5124581;27;20062;-83
2023/01/07 12:43:37;;;;;;;2.42;1.70;;;11.60;1.00;;;;;;5143631;27;20042;-82
2023/01/07 12:46:06;;;;;;;2.67;1.80;;;11.60;99.90;;;;;;5143481;27;20043;-83
2023/01/07 12:48:34;;;;;;;2.95;1.90;;;11.60;1.00;;;;;;5142292;27;20045;-82
2023/01/07 12:51:11;;;;;;;3.25;2.08;;;11.70;1.00;;;;;;5142768;27;20480;-82
2023/01/07 12:53:47;;;;;;;5.20;2.25;;;11.70;96.40;;;;;;5145478;27;20417;-81
2023/01/07 12:56:34;;;;;;;4.13;2.00;;;11.70;88.00;;;;;;5124383;27;20499;-82